Time;durP1;ratioP1;P1;durP2;ratioP2;P2;SDS_P1;SDS_P2;PMS_P1;PMS_P2;Temp;Humidity;BMP_temperature;BMP_pressure;BME280_temperature;BME280_humidity;BME280_pressure;Samples;Min_cycle;Max_cycle;Signal;HPM_P1;HPM_P2
2022/12/30 00:02:22;;;;;;;3.83;3.50;;;8.80;1.00;;;;;;6306903;28;20251;-56
2022/12/30 00:05:25;;;;;;;3.87;3.40;;;8.80;1.00;;;;;;6292894;28;20244;-56
2022/12/30 00:08:47;;;;;;;5.57;3.50;;;8.80;1.00;;;;;;6280688;28;20718;-57
2022/12/30 00:11:50;;;;;;;4.23;3.70;;;8.80;1.00;;;;;;6282732;28;20702;-55
2022/12/30 00:35:02;;;;;;;3.27;3.17;;;8.80;1.00;;;;;;6288060;28;20238;-56
2022/12/30 00:38:06;;;;;;;3.23;3.13;;;8.80;1.00;;;;;;6298710;28;20244;-60
2022/12/30 00:44:31;;;;;;;4.60;3.20;;;8.70;1.00;;;;;;6273354;28;20233;-55
2022/12/30 00:47:34;;;;;;;3.40;3.10;;;8.70;1.00;;;;;;6281953;28;20241;-55
2022/12/30 00:57:20;;;;;;;3.73;3.43;;;8.70;1.00;;;;;;6273640;28;20648;-56
2022/12/30 01:00:23;;;;;;;5.13;3.40;;;8.60;1.00;;;;;;6284393;28;20236;-55
2022/12/30 01:03:26;;;;;;;5.57;3.83;;;8.60;1.00;;;;;;6306270;28;20232;-55
2022/12/30 01:06:29;;;;;;;3.27;3.13;;;8.70;1.00;;;;;;6293516;28;20367;-56
2022/12/30 01:09:34;;;;;;;5.33;3.50;;;8.70;1.00;;;;;;6305596;28;20486;-56
2022/12/30 01:12:39;;;;;;;4.77;3.70;;;8.60;1.00;;;;;;6305623;28;20760;-56
2022/12/30 01:15:42;;;;;;;4.37;3.07;;;8.60;1.00;;;;;;6279461;28;20736;-55
2022/12/30 01:18:46;;;;;;;5.93;3.30;;;8.60;1.00;;;;;;6281653;28;20232;-56
2022/12/30 01:21:49;;;;;;;3.80;3.40;;;8.60;1.00;;;;;;6280601;28;21649;-56
2022/12/30 01:24:52;;;;;;;6.43;3.00;;;8.60;1.00;;;;;;6281793;28;20233;-59
2022/12/30 01:27:56;;;;;;;3.93;3.10;;;8.60;1.00;;;;;;6281250;28;20259;-55
2022/12/30 01:31:00;;;;;;;8.30;3.57;;;8.60;1.00;;;;;;6281085;28;20245;-56
2022/12/30 01:34:03;;;;;;;4.07;3.60;;;8.60;1.00;;;;;;6299397;28;20717;-56
2022/12/30 01:37:06;;;;;;;6.57;3.30;;;8.60;1.00;;;;;;6279868;28;20240;-56
2022/12/30 01:40:11;;;;;;;5.23;3.33;;;8.60;1.00;;;;;;6305761;28;20229;-56
2022/12/30 01:43:18;;;;;;;4.33;3.30;;;8.60;1.00;;;;;;6307486;28;20236;-56
2022/12/30 01:46:24;;;;;;;6.50;3.60;;;8.60;1.00;;;;;;6275110;28;20474;-55
2022/12/30 01:49:27;;;;;;;6.43;3.60;;;8.50;1.00;;;;;;6278292;28;20233;-55
2022/12/30 01:52:31;;;;;;;5.67;3.40;;;8.50;1.00;;;;;;6280645;28;20744;-56
2022/12/30 01:55:39;;;;;;;4.87;4.20;;;8.60;1.00;;;;;;6280268;28;20424;-56
2022/12/30 01:58:47;;;;;;;4.13;3.40;;;8.60;1.00;;;;;;6279681;28;20407;-55
2022/12/30 02:01:51;;;;;;;4.10;3.30;;;8.50;1.00;;;;;;6285400;28;20856;-55
2022/12/30 02:04:54;;;;;;;4.50;3.80;;;8.50;1.00;;;;;;6288913;28;20273;-56
2022/12/30 02:08:02;;;;;;;3.40;3.10;;;8.50;1.00;;;;;;6283393;28;20236;-55
2022/12/30 02:11:07;;;;;;;4.03;3.87;;;8.50;1.00;;;;;;6305992;28;20259;-55
2022/12/30 02:14:12;;;;;;;4.73;3.90;;;8.40;1.00;;;;;;6288867;28;20640;-56
2022/12/30 02:17:25;;;;;;;4.60;3.50;;;8.30;1.00;;;;;;6279631;28;20233;-56
2022/12/30 02:21:07;;;;;;;3.77;3.50;;;8.40;1.00;;;;;;6297107;28;20240;-55
2022/12/30 02:24:41;;;;;;;5.80;3.43;;;8.40;1.00;;;;;;6275938;28;20226;-55
2022/12/30 02:28:08;;;;;;;7.13;4.00;;;8.40;1.00;;;;;;6281070;28;20403;-57
2022/12/30 02:31:30;;;;;;;8.53;3.80;;;8.30;1.00;;;;;;6285062;28;20712;-56
2022/12/30 02:34:46;;;;;;;7.60;4.37;;;8.30;1.00;;;;;;6280339;28;20237;-56
2022/12/30 02:38:00;;;;;;;3.63;3.40;;;8.30;1.00;;;;;;6299971;28;20236;-56
2022/12/30 02:44:37;;;;;;;4.47;3.27;;;8.40;1.00;;;;;;6272481;28;20248;-56
2022/12/30 02:47:44;;;;;;;4.90;3.60;;;8.50;1.00;;;;;;6285143;28;20272;-56
2022/12/30 02:54:10;;;;;;;4.67;3.83;;;8.30;1.00;;;;;;6280479;28;20263;-55
2022/12/30 02:57:28;;;;;;;4.33;4.03;;;8.30;1.00;;;;;;6283727;28;20402;-55
2022/12/30 03:04:13;;;;;;;4.47;3.73;;;8.20;1.00;;;;;;6231799;28;20758;-55
2022/12/30 03:07:28;;;;;;;6.57;4.10;;;8.30;1.00;;;;;;6294944;28;20230;-55
2022/12/30 03:14:01;;;;;;;8.07;3.40;;;8.30;1.00;;;;;;6275761;28;20480;-56
2022/12/30 03:17:09;;;;;;;6.97;3.90;;;8.20;1.00;;;;;;6277875;28;20618;-54
2022/12/30 03:20:15;;;;;;;4.87;3.63;;;8.20;1.00;;;;;;6284345;28;20245;-55
2022/12/30 03:30:05;;;;;;;5.57;4.23;;;8.10;1.00;;;;;;6284425;28;20410;-56
2022/12/30 03:33:08;;;;;;;4.90;3.73;;;8.10;1.00;;;;;;6298777;28;20233;-56
2022/12/30 03:36:17;;;;;;;6.20;3.70;;;8.00;1.00;;;;;;6298026;28;20233;-56
2022/12/30 03:39:25;;;;;;;6.40;3.70;;;8.00;1.00;;;;;;6307344;28;20235;-56
2022/12/30 03:42:29;;;;;;;4.03;3.80;;;7.90;1.00;;;;;;6297397;28;20252;-55
2022/12/30 03:45:32;;;;;;;6.17;3.83;;;8.10;1.00;;;;;;6278580;28;20261;-56
2022/12/30 03:48:35;;;;;;;4.10;3.70;;;7.80;1.00;;;;;;6283961;28;20237;-55
2022/12/30 03:51:39;;;;;;;7.20;4.50;;;7.70;1.00;;;;;;6301052;28;20224;-56
2022/12/30 03:54:43;;;;;;;4.87;4.30;;;7.80;1.00;;;;;;6307505;28;20224;-56
2022/12/30 03:57:46;;;;;;;4.33;3.80;;;7.80;1.00;;;;;;6307414;28;20249;-55
2022/12/30 04:00:50;;;;;;;6.97;4.57;;;7.90;1.00;;;;;;6291495;28;20698;-56
2022/12/30 04:03:53;;;;;;;7.53;4.27;;;7.90;1.00;;;;;;6305744;28;20725;-55
2022/12/30 04:06:58;;;;;;;5.60;3.60;;;7.90;1.00;;;;;;6294388;27;20728;-56
2022/12/30 04:10:01;;;;;;;8.33;4.27;;;7.90;1.00;;;;;;6300929;28;20256;-56
2022/12/30 04:13:04;;;;;;;4.40;4.00;;;7.90;1.00;;;;;;6309301;28;20236;-55
2022/12/30 04:16:08;;;;;;;4.73;4.33;;;7.90;1.00;;;;;;6309389;28;20236;-56
2022/12/30 04:19:11;;;;;;;4.60;3.57;;;7.90;1.00;;;;;;6276940;28;20245;-56
2022/12/30 04:22:16;;;;;;;11.57;4.07;;;7.90;1.00;;;;;;6283842;28;20234;-55
2022/12/30 04:25:18;;;;;;;5.57;3.90;;;7.90;1.00;;;;;;6273336;28;21690;-55
2022/12/30 04:28:21;;;;;;;5.37;4.30;;;7.80;1.00;;;;;;6282607;28;20252;-55
2022/12/30 04:31:24;;;;;;;4.00;3.70;;;7.80;1.00;;;;;;6276447;28;20557;-57
2022/12/30 04:34:28;;;;;;;3.90;3.50;;;7.70;1.00;;;;;;6284987;28;20240;-57
2022/12/30 04:37:32;;;;;;;7.37;4.20;;;7.70;1.00;;;;;;6300195;28;20241;-55
2022/12/30 04:40:35;;;;;;;5.20;3.70;;;7.80;1.00;;;;;;6278179;28;20229;-55
2022/12/30 04:43:38;;;;;;;6.40;4.17;;;7.50;1.00;;;;;;6280530;28;20241;-57
2022/12/30 04:46:41;;;;;;;4.17;3.87;;;7.50;1.00;;;;;;6290047;28;20623;-60
2022/12/30 04:49:44;;;;;;;5.30;3.63;;;7.40;1.00;;;;;;6293054;28;20853;-56
2022/12/30 04:52:49;;;;;;;6.43;4.10;;;7.40;1.00;;;;;;6297228;28;20795;-58
2022/12/30 04:55:53;;;;;;;7.57;3.87;;;7.40;1.00;;;;;;6305323;28;20708;-56
2022/12/30 04:58:56;;;;;;;4.23;4.00;;;7.40;1.00;;;;;;6305800;28;20248;-55
2022/12/30 05:01:59;;;;;;;4.87;3.77;;;7.30;1.00;;;;;;6306380;28;20782;-59
2022/12/30 05:05:03;;;;;;;4.20;3.90;;;7.30;1.00;;;;;;6281645;28;20239;-55
2022/12/30 05:08:07;;;;;;;5.80;4.37;;;7.40;1.00;;;;;;6274934;28;20245;-55
2022/12/30 05:11:10;;;;;;;6.83;4.10;;;7.40;1.00;;;;;;6277786;28;20240;-56
2022/12/30 05:14:13;;;;;;;7.53;4.37;;;7.20;1.00;;;;;;6293944;28;20241;-55
2022/12/30 05:17:17;;;;;;;5.63;4.47;;;7.40;1.00;;;;;;6279693;28;20237;-55
2022/12/30 05:20:20;;;;;;;4.40;3.80;;;7.00;1.00;;;;;;6287789;28;20236;-55
2022/12/30 05:26:41;;;;;;;6.10;4.13;;;7.10;1.00;;;;;;6252782;28;20243;-58
2022/12/30 05:29:44;;;;;;;5.47;3.80;;;6.90;1.00;;;;;;6301873;28;20237;-56
2022/12/30 05:32:47;;;;;;;4.57;3.90;;;7.00;1.00;;;;;;6304475;28;20233;-55
2022/12/30 05:35:50;;;;;;;4.37;3.83;;;6.80;1.00;;;;;;6299161;28;20772;-56
2022/12/30 05:38:54;;;;;;;4.73;4.23;;;7.00;1.00;;;;;;6279188;28;20750;-55
2022/12/30 05:41:57;;;;;;;5.20;4.20;;;6.80;1.00;;;;;;6282321;28;20411;-55
2022/12/30 05:45:00;;;;;;;7.67;4.10;;;6.80;1.00;;;;;;6281856;28;20233;-56
2022/12/30 05:48:04;;;;;;;4.47;4.13;;;6.70;1.00;;;;;;6286451;28;20757;-57
2022/12/30 05:51:07;;;;;;;8.60;4.80;;;6.60;1.00;;;;;;6298970;28;20229;-56
2022/12/30 05:54:11;;;;;;;7.00;4.00;;;6.50;1.00;;;;;;6303549;28;20510;-54
2022/12/30 05:57:14;;;;;;;6.83;4.50;;;6.50;1.00;;;;;;6300130;28;20661;-55
2022/12/30 06:00:17;;;;;;;4.57;4.23;;;6.50;1.00;;;;;;6269284;28;20895;-56
2022/12/30 06:03:20;;;;;;;5.40;4.20;;;6.50;1.00;;;;;;6295099;28;20251;-56
2022/12/30 06:06:24;;;;;;;7.47;4.43;;;6.50;1.00;;;;;;6274285;28;20977;-55
2022/12/30 06:09:28;;;;;;;5.47;4.30;;;6.40;1.00;;;;;;6281401;28;20809;-56
2022/12/30 06:12:31;;;;;;;4.30;4.00;;;6.40;1.00;;;;;;6278179;28;20501;-55
2022/12/30 06:15:34;;;;;;;4.80;4.33;;;6.40;1.00;;;;;;6292928;28;20243;-56
2022/12/30 06:18:37;;;;;;;5.47;4.30;;;6.40;1.00;;;;;;6288549;28;20237;-55
2022/12/30 06:21:40;;;;;;;6.23;5.20;;;6.20;1.00;;;;;;6282351;28;20456;-56
2022/12/30 06:24:44;;;;;;;6.27;4.30;;;6.30;1.00;;;;;;6286617;28;20635;-57
2022/12/30 06:27:47;;;;;;;4.40;3.87;;;6.20;1.00;;;;;;6287721;28;20442;-56
2022/12/30 06:30:50;;;;;;;4.83;4.33;;;6.30;1.00;;;;;;6287424;28;20252;-53
2022/12/30 06:33:53;;;;;;;6.27;4.27;;;6.30;1.00;;;;;;6279105;28;20475;-55
2022/12/30 06:36:56;;;;;;;6.07;4.50;;;6.50;1.00;;;;;;6276797;28;20240;-54
2022/12/30 06:40:01;;;;;;;12.37;4.33;;;6.20;1.00;;;;;;6278209;28;20605;-56
2022/12/30 06:43:04;;;;;;;6.00;3.93;;;6.30;1.00;;;;;;6300381;28;20228;-56
2022/12/30 06:46:07;;;;;;;5.30;4.17;;;6.10;1.00;;;;;;6276715;28;20282;-54
2022/12/30 06:49:10;;;;;;;6.33;4.53;;;6.30;1.00;;;;;;6280047;28;20241;-56
2022/12/30 06:52:13;;;;;;;5.80;4.03;;;6.10;1.00;;;;;;6294944;28;20241;-55
2022/12/30 06:55:17;;;;;;;10.47;4.80;;;6.30;1.00;;;;;;6286401;28;20229;-56
2022/12/30 06:58:20;;;;;;;7.97;4.47;;;6.10;1.00;;;;;;6284577;28;20827;-57
2022/12/30 07:01:23;;;;;;;5.27;4.80;;;6.30;1.00;;;;;;6302665;28;20232;-56
2022/12/30 07:04:26;;;;;;;4.40;4.00;;;6.00;1.00;;;;;;6292436;28;20418;-55
2022/12/30 07:07:29;;;;;;;6.13;4.13;;;6.00;1.00;;;;;;6284719;28;20581;-59
2022/12/30 07:10:34;;;;;;;6.63;4.30;;;6.00;1.00;;;;;;6279875;28;20245;-55
2022/12/30 07:13:37;;;;;;;5.23;4.33;;;6.10;1.00;;;;;;6301105;28;20228;-56
2022/12/30 07:16:40;;;;;;;6.30;4.17;;;6.00;1.00;;;;;;6279621;28;20774;-57
2022/12/30 07:19:46;;;;;;;5.97;4.40;;;6.00;1.00;;;;;;6299701;28;20244;-55
2022/12/30 07:22:49;;;;;;;7.43;4.27;;;6.00;1.00;;;;;;6304449;28;20588;-56
2022/12/30 07:25:53;;;;;;;4.40;4.10;;;5.90;1.00;;;;;;6303054;28;20399;-55
2022/12/30 07:28:56;;;;;;;6.30;4.43;;;6.00;1.00;;;;;;6297651;28;20603;-56
2022/12/30 07:31:59;;;;;;;7.90;4.83;;;5.90;1.00;;;;;;6293543;28;20241;-55
2022/12/30 07:35:02;;;;;;;8.03;4.47;;;6.00;1.00;;;;;;6298388;28;20495;-55
2022/12/30 07:38:05;;;;;;;8.27;4.60;;;5.80;1.00;;;;;;6303222;27;20232;-56
2022/12/30 07:41:11;;;;;;;5.20;4.70;;;5.60;1.00;;;;;;6287781;28;20239;-56
2022/12/30 07:44:14;;;;;;;10.63;4.90;;;5.80;1.00;;;;;;6296335;28;20237;-56
2022/12/30 07:47:17;;;;;;;5.67;4.40;;;6.00;1.00;;;;;;6307026;28;20232;-56
2022/12/30 07:50:20;;;;;;;9.17;4.67;;;5.80;1.00;;;;;;6306441;28;20378;-55
2022/12/30 07:53:23;;;;;;;8.53;4.83;;;5.90;1.00;;;;;;6293868;28;20245;-55
2022/12/30 07:56:28;;;;;;;5.40;4.90;;;6.00;1.00;;;;;;6286222;28;20402;-55
2022/12/30 07:59:31;;;;;;;10.90;5.93;;;5.90;1.00;;;;;;6302462;28;20252;-56
2022/12/30 08:02:33;;;;;;;6.07;4.57;;;5.70;1.00;;;;;;6296900;28;20240;-57
2022/12/30 08:05:37;;;;;;;6.37;5.57;;;5.60;1.00;;;;;;6296181;28;20760;-56
2022/12/30 08:08:42;;;;;;;10.23;5.80;;;5.80;1.00;;;;;;6285007;28;20656;-56
2022/12/30 08:11:46;;;;;;;6.27;4.50;;;5.80;1.00;;;;;;6282485;28;20257;-57
2022/12/30 08:14:49;;;;;;;6.70;5.40;;;5.90;1.00;;;;;;6304139;28;20243;-56
2022/12/30 08:17:52;;;;;;;6.47;5.03;;;6.00;1.00;;;;;;6280606;28;20241;-56
2022/12/30 08:20:58;;;;;;;9.33;5.63;;;5.90;1.00;;;;;;6291840;28;20404;-55
2022/12/30 08:24:01;;;;;;;7.87;5.57;;;5.90;1.00;;;;;;6286002;28;20245;-56
2022/12/30 08:27:06;;;;;;;6.80;5.50;;;6.00;1.00;;;;;;6285133;28;20255;-56
2022/12/30 08:30:11;;;;;;;7.40;5.63;;;6.10;1.00;;;;;;6295436;28;20251;-56
2022/12/30 08:33:14;;;;;;;7.97;5.23;;;6.10;1.00;;;;;;6307658;28;20225;-55
2022/12/30 08:36:27;;;;;;;5.57;5.13;;;6.40;1.00;;;;;;6305754;28;20225;-55
2022/12/30 08:39:30;;;;;;;8.63;4.93;;;6.10;1.00;;;;;;6284187;28;20364;-56
2022/12/30 08:42:35;;;;;;;8.60;4.83;;;6.40;1.00;;;;;;6302268;28;20232;-56
2022/12/30 08:45:38;;;;;;;5.33;4.93;;;6.30;1.00;;;;;;6298938;28;20634;-56
2022/12/30 08:48:41;;;;;;;6.97;5.13;;;6.50;1.00;;;;;;6287872;28;20236;-56
2022/12/30 08:51:44;;;;;;;7.33;4.77;;;6.50;1.00;;;;;;6279820;28;20714;-55
2022/12/30 08:54:47;;;;;;;11.23;4.90;;;6.80;1.00;;;;;;6287178;28;20709;-55
2022/12/30 08:57:51;;;;;;;8.57;5.03;;;6.60;1.00;;;;;;6298083;28;20589;-55
2022/12/30 09:00:54;;;;;;;6.47;4.37;;;6.80;1.00;;;;;;6297153;28;20236;-56
2022/12/30 09:03:58;;;;;;;6.27;5.03;;;6.80;1.00;;;;;;6274827;28;20295;-55
2022/12/30 09:07:01;;;;;;;6.67;4.17;;;6.80;1.00;;;;;;6294428;28;20241;-55
2022/12/30 09:10:10;;;;;;;8.73;4.40;;;7.00;1.00;;;;;;6305945;28;20639;-56
2022/12/30 09:13:15;;;;;;;8.80;4.40;;;7.00;1.00;;;;;;6294443;28;20276;-55
2022/12/30 09:16:21;;;;;;;6.20;4.10;;;7.10;1.00;;;;;;6303897;28;20233;-55
2022/12/30 09:19:24;;;;;;;4.30;3.90;;;7.10;1.00;;;;;;6278236;28;20267;-56
2022/12/30 09:22:27;;;;;;;6.23;4.53;;;7.40;1.00;;;;;;6285832;28;20368;-55
2022/12/30 09:25:29;;;;;;;7.00;4.83;;;7.40;1.00;;;;;;6285789;28;20245;-56
2022/12/30 09:28:35;;;;;;;7.07;4.20;;;7.30;1.00;;;;;;6287215;28;20233;-55
2022/12/30 09:31:38;;;;;;;4.43;4.07;;;7.50;1.00;;;;;;6289369;28;20308;-57
2022/12/30 09:34:42;;;;;;;4.73;4.33;;;7.60;1.00;;;;;;6285293;28;20802;-55
2022/12/30 09:37:45;;;;;;;7.27;4.17;;;7.40;1.00;;;;;;6297862;28;20621;-56
2022/12/30 09:40:55;;;;;;;7.93;4.23;;;7.50;1.00;;;;;;6297807;28;20733;-56
2022/12/30 09:44:10;;;;;;;7.30;4.07;;;7.60;1.00;;;;;;6302165;28;20229;-56
2022/12/30 09:47:19;;;;;;;10.23;4.87;;;7.80;1.00;;;;;;6297548;28;20244;-56
2022/12/30 09:50:37;;;;;;;5.97;4.40;;;7.90;1.00;;;;;;6298362;28;20749;-55
2022/12/30 09:53:44;;;;;;;4.77;4.30;;;7.90;1.00;;;;;;6300672;28;20804;-56
2022/12/30 09:56:49;;;;;;;5.43;4.13;;;8.00;1.00;;;;;;6285249;28;20229;-56
2022/12/30 09:59:57;;;;;;;6.60;4.17;;;8.00;1.00;;;;;;6284399;28;20286;-56
2022/12/30 10:03:05;;;;;;;8.47;3.90;;;8.10;1.00;;;;;;6285877;28;20557;-54
2022/12/30 10:06:32;;;;;;;7.63;3.73;;;8.30;1.00;;;;;;6282644;28;20381;-56
2022/12/30 10:09:44;;;;;;;6.03;4.27;;;8.40;1.00;;;;;;6296046;28;20248;-55
2022/12/30 10:12:57;;;;;;;6.07;3.57;;;8.60;1.00;;;;;;6293481;28;20235;-54
2022/12/30 10:16:07;;;;;;;4.80;4.13;;;8.60;1.00;;;;;;6288311;28;20244;-54
2022/12/30 10:19:19;;;;;;;6.93;3.80;;;8.50;1.00;;;;;;6304253;28;20244;-55
2022/12/30 10:22:29;;;;;;;4.83;4.40;;;8.70;1.00;;;;;;6302979;28;20440;-55
2022/12/30 10:25:40;;;;;;;5.73;4.10;;;8.80;1.00;;;;;;6287244;28;20268;-56
2022/12/30 10:28:47;;;;;;;6.67;3.93;;;8.80;1.00;;;;;;6299653;28;20403;-55
2022/12/30 10:31:53;;;;;;;6.10;4.00;;;8.90;1.00;;;;;;6301380;28;20228;-55
2022/12/30 10:35:02;;;;;;;5.23;3.90;;;8.90;1.00;;;;;;6298336;28;20596;-56
2022/12/30 10:38:11;;;;;;;4.60;3.83;;;8.90;1.00;;;;;;6296295;28;20736;-55
2022/12/30 10:41:28;;;;;;;4.87;3.90;;;9.10;1.00;;;;;;6298309;28;20759;-55
2022/12/30 10:44:54;;;;;;;3.97;3.70;;;9.10;1.00;;;;;;6302347;28;20366;-55
2022/12/30 10:48:19;;;;;;;5.97;3.50;;;9.10;1.00;;;;;;6285725;28;20233;-55
2022/12/30 10:51:24;;;;;;;7.87;4.00;;;9.20;1.00;;;;;;6309815;28;20225;-57
2022/12/30 10:54:27;;;;;;;6.57;4.43;;;9.20;1.00;;;;;;6294523;28;20241;-55
2022/12/30 10:57:35;;;;;;;4.83;4.23;;;9.30;1.00;;;;;;6302336;28;20243;-55
2022/12/30 11:00:40;;;;;;;4.53;4.13;;;9.30;1.00;;;;;;6301728;28;20233;-57
2022/12/30 11:03:48;;;;;;;7.57;4.00;;;9.20;1.00;;;;;;6303896;28;20233;-56
2022/12/30 11:07:00;;;;;;;8.17;3.73;;;9.20;1.00;;;;;;6303717;28;20693;-59
2022/12/30 11:10:14;;;;;;;5.10;3.83;;;9.30;1.00;;;;;;6311641;28;20725;-55
2022/12/30 11:16:38;;;;;;;10.07;3.60;;;9.60;1.00;;;;;;6289790;28;20226;-56
2022/12/30 11:19:43;;;;;;;5.77;3.87;;;9.60;1.00;;;;;;6311403;28;20255;-55
2022/12/30 11:22:47;;;;;;;4.97;4.50;;;9.70;1.00;;;;;;6308986;28;20244;-57
2022/12/30 11:25:50;;;;;;;5.37;3.73;;;9.70;1.00;;;;;;6301733;28;20244;-55
2022/12/30 11:28:56;;;;;;;7.07;4.10;;;9.80;1.00;;;;;;6307998;28;20949;-55
2022/12/30 11:31:59;;;;;;;8.17;4.23;;;9.80;1.00;;;;;;6296535;28;20238;-57
2022/12/30 11:35:04;;;;;;;7.00;3.57;;;9.60;1.00;;;;;;6284055;28;20598;-55
2022/12/30 11:38:28;;;;;;;4.27;3.90;;;9.60;1.00;;;;;;6301355;28;20225;-55
2022/12/30 11:41:33;;;;;;;5.30;3.70;;;9.60;1.00;;;;;;6293416;28;20240;-55
2022/12/30 11:44:36;;;;;;;7.70;4.17;;;9.50;1.00;;;;;;6292648;28;20252;-56
2022/12/30 11:47:44;;;;;;;3.90;3.60;;;9.60;1.00;;;;;;6306780;28;20438;-55
2022/12/30 11:50:54;;;;;;;5.07;3.60;;;9.60;1.00;;;;;;6286737;28;20363;-55
2022/12/30 11:54:06;;;;;;;4.40;3.90;;;9.60;1.00;;;;;;6291186;28;20241;-55
2022/12/30 11:57:21;;;;;;;3.87;3.57;;;9.70;1.00;;;;;;6300544;28;20426;-57
2022/12/30 12:00:36;;;;;;;9.07;4.03;;;9.80;1.00;;;;;;6300205;28;20821;-55
2022/12/30 12:03:49;;;;;;;7.57;3.70;;;9.70;1.00;;;;;;6296294;28;20237;-55
2022/12/30 12:06:53;;;;;;;4.20;3.73;;;9.60;1.00;;;;;;6288975;28;20426;-57
2022/12/30 12:10:06;;;;;;;7.20;3.60;;;9.70;1.00;;;;;;6289234;28;20236;-56
2022/12/30 12:13:19;;;;;;;10.93;3.80;;;9.60;1.00;;;;;;6288855;28;20652;-56
2022/12/30 12:16:32;;;;;;;3.80;3.40;;;9.60;1.00;;;;;;6306847;28;20240;-56
2022/12/30 12:19:41;;;;;;;8.03;3.97;;;9.60;1.00;;;;;;6310435;28;20419;-55
2022/12/30 12:22:55;;;;;;;10.27;4.47;;;9.60;1.00;;;;;;6305999;28;20411;-56
2022/12/30 12:26:05;;;;;;;6.80;4.00;;;9.50;1.00;;;;;;6283562;28;20238;-55
2022/12/30 12:29:12;;;;;;;6.80;3.80;;;9.50;1.00;;;;;;6281065;28;20486;-56
2022/12/30 12:32:42;;;;;;;6.07;3.83;;;9.50;1.00;;;;;;6295395;28;20272;-56
2022/12/30 12:36:00;;;;;;;4.53;3.63;;;9.50;1.00;;;;;;6290597;28;20613;-55
2022/12/30 12:39:10;;;;;;;6.23;3.70;;;9.50;1.00;;;;;;6309366;28;20324;-58
2022/12/30 12:42:16;;;;;;;7.33;3.87;;;9.50;1.00;;;;;;6300406;28;20233;-55
2022/12/30 12:45:42;;;;;;;4.87;3.30;;;9.50;1.00;;;;;;6309658;28;20603;-56
2022/12/30 12:49:17;;;;;;;6.37;3.80;;;9.60;1.00;;;;;;6306432;28;20240;-55
2022/12/30 12:52:32;;;;;;;3.70;3.30;;;9.50;1.00;;;;;;6306873;28;20673;-55
2022/12/30 12:56:07;;;;;;;5.80;4.23;;;9.60;1.00;;;;;;6308073;28;20348;-57
2022/12/30 12:59:27;;;;;;;7.33;3.80;;;9.50;1.00;;;;;;6308812;28;20229;-56
2022/12/30 13:03:10;;;;;;;5.00;4.53;;;9.50;1.00;;;;;;6306370;28;20350;-57
2022/12/30 13:06:21;;;;;;;4.40;3.70;;;9.50;1.00;;;;;;6251147;28;20793;-55
2022/12/30 13:09:45;;;;;;;5.87;3.80;;;9.50;1.00;;;;;;6297799;28;20248;-56
2022/12/30 13:13:01;;;;;;;7.57;4.90;;;9.50;1.00;;;;;;6298933;28;20308;-56
2022/12/30 13:16:08;;;;;;;7.83;4.43;;;9.50;1.00;;;;;;6291930;28;20490;-56
2022/12/30 13:19:14;;;;;;;5.07;4.33;;;9.50;1.00;;;;;;6304349;28;20244;-55
2022/12/30 13:22:23;;;;;;;7.47;5.40;;;9.50;1.00;;;;;;6285099;28;20233;-55
2022/12/30 13:25:30;;;;;;;6.30;5.30;;;9.40;1.00;;;;;;6291337;28;20236;-58
2022/12/30 13:28:35;;;;;;;9.77;5.47;;;9.40;1.00;;;;;;6287202;28;20387;-56
2022/12/30 13:31:45;;;;;;;6.90;4.90;;;9.30;1.00;;;;;;6283334;28;20649;-55
2022/12/30 13:34:56;;;;;;;5.83;5.27;;;9.30;1.00;;;;;;6288545;28;20310;-56
2022/12/30 13:38:10;;;;;;;7.20;4.83;;;9.20;1.00;;;;;;6301294;28;20233;-56
2022/12/30 13:41:33;;;;;;;9.20;4.67;;;9.20;1.00;;;;;;6305880;28;20649;-56
2022/12/30 13:44:44;;;;;;;4.83;4.27;;;9.20;1.00;;;;;;6306726;28;20243;-56
2022/12/30 13:47:48;;;;;;;9.40;4.40;;;9.20;1.00;;;;;;6301287;28;20233;-56
2022/12/30 13:51:01;;;;;;;4.40;4.20;;;9.30;1.00;;;;;;6301440;28;20725;-56
2022/12/30 13:54:10;;;;;;;5.93;4.80;;;9.30;1.00;;;;;;6307872;28;20229;-55
2022/12/30 13:57:29;;;;;;;11.03;5.00;;;9.20;1.00;;;;;;6304138;28;20315;-56
2022/12/30 14:00:35;;;;;;;9.37;4.87;;;9.10;1.00;;;;;;6295273;28;20225;-55
2022/12/30 14:03:38;;;;;;;6.73;4.90;;;9.10;1.00;;;;;;6306145;28;20394;-56
2022/12/30 14:06:43;;;;;;;6.77;4.27;;;9.10;1.00;;;;;;6289190;28;20240;-55
2022/12/30 14:10:25;;;;;;;4.77;4.37;;;9.00;1.00;;;;;;6307509;28;20709;-56
2022/12/30 14:13:37;;;;;;;6.63;4.67;;;9.00;1.00;;;;;;6283159;28;20274;-55
2022/12/30 14:17:09;;;;;;;9.80;5.23;;;8.90;1.00;;;;;;6286034;28;20244;-56
2022/12/30 14:20:22;;;;;;;7.30;4.87;;;8.80;1.00;;;;;;6250575;28;20309;-55
2022/12/30 14:23:45;;;;;;;5.60;4.73;;;8.80;1.00;;;;;;6300874;28;20405;-55
2022/12/30 14:26:48;;;;;;;10.57;4.97;;;8.70;1.00;;;;;;6277558;28;20230;-56
2022/12/30 14:30:03;;;;;;;6.60;5.00;;;8.70;1.00;;;;;;6281824;28;20487;-56
2022/12/30 14:33:20;;;;;;;6.60;4.53;;;8.70;1.00;;;;;;6276490;28;20507;-56
2022/12/30 14:36:25;;;;;;;8.53;5.10;;;8.70;1.00;;;;;;6283704;28;20237;-56
2022/12/30 14:39:29;;;;;;;8.50;5.57;;;8.60;1.00;;;;;;6287606;28;20238;-56
2022/12/30 14:42:32;;;;;;;13.50;6.57;;;8.60;1.00;;;;;;6284179;28;20328;-56
2022/12/30 14:45:35;;;;;;;11.07;6.60;;;8.60;1.00;;;;;;6290172;28;20241;-56
2022/12/30 14:49:02;;;;;;;7.73;5.73;;;8.50;1.00;;;;;;6304223;28;20509;-59
2022/12/30 14:52:21;;;;;;;11.20;6.30;;;8.50;1.00;;;;;;6280565;28;20237;-55
2022/12/30 14:55:27;;;;;;;12.27;6.83;;;8.40;1.00;;;;;;6292847;28;20604;-55
2022/12/30 14:58:30;;;;;;;6.93;6.13;;;8.40;1.00;;;;;;6285756;28;20248;-55
2022/12/30 15:01:34;;;;;;;8.77;6.27;;;8.30;1.00;;;;;;6291784;28;20232;-56
2022/12/30 15:04:38;;;;;;;9.17;6.33;;;8.30;1.00;;;;;;6283814;28;20240;-60
2022/12/30 15:07:43;;;;;;;7.10;6.40;;;8.30;1.00;;;;;;6295805;28;20232;-56
2022/12/30 15:10:53;;;;;;;14.50;6.90;;;8.20;1.00;;;;;;6305101;28;20402;-55
2022/12/30 15:13:56;;;;;;;13.83;7.40;;;8.20;1.00;;;;;;6287607;28;20412;-57
2022/12/30 15:17:08;;;;;;;9.57;7.40;;;8.20;1.00;;;;;;6294578;28;20226;-56
2022/12/30 15:20:27;;;;;;;9.43;6.73;;;8.10;1.00;;;;;;6283383;28;20226;-56
2022/12/30 15:23:31;;;;;;;8.60;6.33;;;8.00;1.00;;;;;;6278898;28;20756;-55
2022/12/30 15:26:37;;;;;;;13.83;9.27;;;8.00;1.00;;;;;;6290253;28;20236;-56
2022/12/30 15:29:43;;;;;;;16.80;10.10;;;7.90;1.00;;;;;;6305883;28;20245;-56
2022/12/30 15:32:55;;;;;;;14.47;9.47;;;7.90;1.00;;;;;;6296573;28;20656;-57
2022/12/30 15:36:01;;;;;;;9.47;8.47;;;7.90;1.00;;;;;;6279376;28;20225;-59
2022/12/30 15:39:06;;;;;;;12.00;6.67;;;7.90;1.00;;;;;;6292393;28;20735;-56
2022/12/30 15:42:15;;;;;;;9.10;6.30;;;7.90;1.00;;;;;;6304334;28;20232;-56
2022/12/30 15:45:30;;;;;;;10.53;6.67;;;7.90;1.00;;;;;;6308343;28;20240;-57
2022/12/30 15:48:35;;;;;;;9.80;6.33;;;7.90;1.00;;;;;;6289605;28;20230;-55
2022/12/30 15:51:41;;;;;;;9.53;7.53;;;7.90;1.00;;;;;;6292286;28;20228;-55
2022/12/30 15:54:47;;;;;;;8.10;6.17;;;7.80;1.00;;;;;;6305078;28;20713;-56
2022/12/30 15:57:52;;;;;;;7.53;6.50;;;7.90;1.00;;;;;;6295350;28;20249;-57
2022/12/30 16:01:01;;;;;;;6.87;6.17;;;7.90;1.00;;;;;;6309445;28;20237;-56
2022/12/30 16:04:06;;;;;;;9.23;6.10;;;7.90;1.00;;;;;;6306764;28;20279;-56
2022/12/30 16:07:23;;;;;;;14.13;7.83;;;7.80;1.00;;;;;;6304073;28;20233;-56
2022/12/30 16:10:28;;;;;;;11.23;7.63;;;7.80;1.00;;;;;;6287737;28;20379;-55
2022/12/30 16:13:34;;;;;;;8.37;7.20;;;7.70;1.00;;;;;;6293078;28;20233;-56
2022/12/30 16:16:37;;;;;;;8.37;7.03;;;7.70;1.00;;;;;;6287381;28;20240;-57
2022/12/30 16:19:44;;;;;;;10.67;8.13;;;7.70;1.00;;;;;;6302110;28;20284;-55
2022/12/30 16:22:49;;;;;;;16.17;11.40;;;7.70;1.00;;;;;;6311019;28;20520;-55
2022/12/30 16:25:54;;;;;;;12.43;8.67;;;7.70;1.00;;;;;;6306288;28;20233;-55
2022/12/30 16:29:08;;;;;;;14.17;8.90;;;7.70;1.00;;;;;;6309518;28;20290;-56
2022/12/30 16:32:13;;;;;;;12.07;8.07;;;7.70;1.00;;;;;;6305586;28;20222;-55
2022/12/30 16:35:16;;;;;;;16.10;7.93;;;7.70;1.00;;;;;;6284692;28;20233;-56
2022/12/30 16:38:22;;;;;;;13.00;8.17;;;7.70;1.00;;;;;;6287825;28;20248;-54
2022/12/30 16:41:26;;;;;;;9.07;6.70;;;7.70;1.00;;;;;;6287297;28;20221;-56
2022/12/30 16:44:29;;;;;;;10.07;7.17;;;7.90;1.00;;;;;;6286186;28;20311;-55
2022/12/30 16:47:32;;;;;;;8.80;7.23;;;7.70;1.00;;;;;;6299516;28;20226;-55
2022/12/30 16:50:40;;;;;;;15.40;7.80;;;7.70;1.00;;;;;;6304777;28;20228;-56
2022/12/30 16:53:45;;;;;;;13.20;8.10;;;7.90;1.00;;;;;;6283782;28;20241;-56
2022/12/30 16:56:49;;;;;;;11.97;8.93;;;7.90;1.00;;;;;;6294310;28;20237;-55
2022/12/30 16:59:52;;;;;;;11.07;8.83;;;8.00;1.00;;;;;;6302537;28;20750;-57
2022/12/30 17:03:18;;;;;;;11.27;7.67;;;8.00;1.00;;;;;;6280601;28;20233;-56
2022/12/30 17:06:21;;;;;;;7.43;6.73;;;7.90;1.00;;;;;;6292078;28;20739;-55
2022/12/30 17:12:48;;;;;;;13.10;6.97;;;7.90;1.00;;;;;;6291654;28;20236;-57
2022/12/30 17:15:51;;;;;;;7.37;6.53;;;7.90;1.00;;;;;;6293320;28;20627;-56
2022/12/30 17:18:55;;;;;;;6.87;6.30;;;7.80;1.00;;;;;;6293443;28;20232;-55
2022/12/30 17:21:59;;;;;;;9.47;7.63;;;7.90;1.00;;;;;;6306972;28;20233;-56
2022/12/30 17:25:03;;;;;;;18.50;11.30;;;7.80;1.00;;;;;;6305185;28;20244;-56
2022/12/30 17:28:06;;;;;;;15.37;9.67;;;7.80;1.00;;;;;;6289253;28;20411;-56
2022/12/30 17:31:13;;;;;;;11.57;7.73;;;7.70;1.00;;;;;;6307560;28;20259;-56
2022/12/30 17:34:17;;;;;;;10.40;7.37;;;7.90;1.00;;;;;;6300151;28;20221;-56
2022/12/30 17:37:20;;;;;;;11.53;7.93;;;7.60;1.00;;;;;;6293555;28;20235;-56
2022/12/30 17:40:24;;;;;;;13.43;8.57;;;7.50;1.00;;;;;;6275300;28;20238;-55